X  CloseMetar Aviation Weather Data     EFPO Pori

Temperature

4°C Temperature

3°C Dewpoint

93% Humidity



Wind

 8 KM/H

 5 MPH

 2 M/S

 4 KTS



230°
South West
Current Conditions

Light Rain Light Rain
Pressure 984.92 (hPa) - 29.08 (in)
Visibility 6.2 (mi) - 10 (km)
Airport
Airport-code EFPO

Location Pori 56 (km)

Metar:
EFPO 061750Z AUTO 23004KT 180V260 9999 -SHRA OVC004 04/03 Q0985 REDZ

Time: 06-12-2019 19:50